Time;durP1;ratioP1;P1;durP2;ratioP2;P2;SDS_P1;SDS_P2;PMS_P1;PMS_P2;Temp;Humidity;BMP_temperature;BMP_pressure;BME280_temperature;BME280_humidity;BME280_pressure;Samples;Min_cycle;Max_cycle;Signal;HPM_P1;HPM_P2
2021/04/28 00:00:02;;;;;;;7.93;4.90;;;10.00;94.00;;;;;;5046750;28;20220;-65
2021/04/28 00:02:29;;;;;;;6.43;4.23;;;9.90;93.00;;;;;;5041802;28;20314;-65
2021/04/28 00:05:00;;;;;;;4.87;4.50;;;10.00;92.50;;;;;;5043200;28;20257;-65
2021/04/28 00:07:28;;;;;;;7.10;5.17;;;10.00;92.80;;;;;;5040604;28;20232;-65
2021/04/28 00:09:55;;;;;;;9.57;4.53;;;10.00;93.00;;;;;;5040826;28;20185;-65
2021/04/28 00:12:22;;;;;;;9.87;4.90;;;10.00;92.70;;;;;;5038773;28;20355;-65
2021/04/28 00:14:50;;;;;;;7.77;4.53;;;10.00;92.30;;;;;;5043970;28;20221;-65
2021/04/28 00:17:17;;;;;;;8.77;4.40;;;10.00;92.80;;;;;;5043851;28;20221;-65
2021/04/28 00:19:45;;;;;;;4.30;4.10;;;10.00;92.60;;;;;;5046559;28;20178;-66
2021/04/28 00:22:13;;;;;;;4.07;3.77;;;10.00;93.00;;;;;;5043723;28;20205;-65
2021/04/28 00:24:42;;;;;;;4.73;4.20;;;9.90;93.00;;;;;;5045080;28;20185;-65
2021/04/28 00:27:10;;;;;;;8.23;4.50;;;9.90;93.30;;;;;;5044522;28;20193;-65
2021/04/28 00:29:39;;;;;;;6.13;4.37;;;9.90;92.70;;;;;;5045394;28;20182;-65
2021/04/28 00:32:06;;;;;;;8.17;4.73;;;9.90;93.20;;;;;;5041270;28;20444;-65
2021/04/28 00:34:34;;;;;;;9.17;4.53;;;9.90;92.90;;;;;;5042678;28;20252;-65
2021/04/28 00:37:02;;;;;;;4.60;4.30;;;9.90;93.00;;;;;;5045492;28;20197;-66
2021/04/28 00:39:30;;;;;;;6.60;4.10;;;9.80;93.20;;;;;;5043506;28;20181;-65
2021/04/28 00:41:57;;;;;;;6.53;4.50;;;9.80;93.00;;;;;;5043942;28;20205;-65
2021/04/28 00:44:25;;;;;;;7.90;4.60;;;9.80;93.10;;;;;;5038801;28;20177;-65
2021/04/28 00:47:05;;;;;;;4.80;4.50;;;9.80;93.40;;;;;;5043376;28;20275;-65
2021/04/28 00:49:32;;;;;;;4.93;4.53;;;9.80;93.60;;;;;;5044649;28;20410;-65
2021/04/28 00:52:00;;;;;;;4.47;4.07;;;9.70;93.30;;;;;;5046563;28;20182;-65
2021/04/28 00:54:30;;;;;;;4.93;4.43;;;9.70;93.30;;;;;;5044051;28;20228;-65
2021/04/28 00:56:59;;;;;;;5.07;4.57;;;9.70;93.90;;;;;;5044637;28;20213;-65
2021/04/28 00:59:28;;;;;;;4.90;4.40;;;9.60;93.80;;;;;;5039019;28;20193;-65
2021/04/28 01:01:55;;;;;;;4.63;4.23;;;9.60;93.40;;;;;;5036316;28;20208;-65
2021/04/28 01:04:23;;;;;;;5.03;4.53;;;9.60;93.70;;;;;;5045478;28;20320;-65
2021/04/28 01:06:52;;;;;;;5.00;4.50;;;9.50;94.40;;;;;;5041228;28;20174;-65
2021/04/28 01:09:21;;;;;;;7.17;4.70;;;9.50;93.40;;;;;;5040619;28;20181;-65
2021/04/28 01:11:50;;;;;;;4.70;4.30;;;9.50;93.90;;;;;;5038166;28;20182;-65
2021/04/28 01:14:18;;;;;;;5.30;4.80;;;9.50;94.30;;;;;;5039599;28;20205;-65
2021/04/28 01:16:46;;;;;;;5.10;4.60;;;9.40;93.80;;;;;;5040464;28;20307;-65
2021/04/28 01:19:14;;;;;;;10.07;4.70;;;9.40;94.70;;;;;;5045598;28;20201;-65
2021/04/28 01:21:41;;;;;;;6.27;4.63;;;9.30;94.80;;;;;;5042087;28;20205;-65
2021/04/28 01:24:11;;;;;;;4.97;4.50;;;9.20;94.90;;;;;;5039525;28;20227;-65
2021/04/28 01:26:39;;;;;;;4.57;4.13;;;9.20;95.30;;;;;;5041681;28;20211;-65
2021/04/28 01:29:07;;;;;;;5.03;4.53;;;9.20;94.00;;;;;;5035147;28;20261;-65
2021/04/28 01:31:35;;;;;;;5.07;4.57;;;9.20;94.00;;;;;;5032920;28;20182;-65
2021/04/28 01:34:06;;;;;;;5.17;4.67;;;9.30;94.40;;;;;;5045367;28;20210;-65
2021/04/28 01:36:35;;;;;;;5.63;4.50;;;9.20;94.60;;;;;;5040028;28;20205;-65
2021/04/28 01:39:06;;;;;;;4.83;4.47;;;9.20;94.30;;;;;;5042239;28;20178;-65
2021/04/28 01:41:38;;;;;;;4.83;4.43;;;9.20;94.50;;;;;;5036789;28;20445;-64
2021/04/28 01:44:09;;;;;;;6.90;4.40;;;9.20;94.00;;;;;;5042861;28;20186;-65
2021/04/28 01:46:37;;;;;;;5.30;4.53;;;9.20;94.20;;;;;;5048374;28;20256;-65
2021/04/28 01:49:06;;;;;;;5.93;4.23;;;9.20;93.90;;;;;;5043387;28;20228;-65
2021/04/28 01:51:34;;;;;;;5.23;4.47;;;9.20;94.20;;;;;;5040472;28;20185;-65
2021/04/28 01:54:03;;;;;;;5.53;4.33;;;9.10;93.90;;;;;;5041980;28;20426;-65
2021/04/28 01:56:31;;;;;;;5.13;4.40;;;9.10;94.00;;;;;;5042688;28;20229;-65
2021/04/28 01:59:00;;;;;;;5.47;4.97;;;9.00;94.10;;;;;;5036234;28;20457;-65
2021/04/28 02:01:27;;;;;;;6.33;4.50;;;9.00;94.40;;;;;;5042745;28;20189;-64
2021/04/28 02:03:55;;;;;;;11.20;4.53;;;8.90;94.20;;;;;;5039808;28;20212;-65
2021/04/28 02:06:23;;;;;;;4.70;4.33;;;8.90;94.70;;;;;;5035273;28;20269;-65
2021/04/28 02:08:50;;;;;;;5.87;4.90;;;8.80;94.60;;;;;;5042727;28;20186;-65
2021/04/28 02:11:18;;;;;;;4.77;4.37;;;8.70;94.60;;;;;;5042351;28;20185;-65
2021/04/28 02:13:47;;;;;;;8.77;4.27;;;8.70;94.70;;;;;;5041343;28;20217;-65
2021/04/28 02:16:16;;;;;;;5.40;4.90;;;8.60;94.60;;;;;;5035350;28;20186;-65
2021/04/28 02:18:44;;;;;;;6.57;4.80;;;8.60;94.70;;;;;;5038574;28;20226;-65
2021/04/28 02:21:11;;;;;;;7.40;4.97;;;8.50;94.80;;;;;;5038317;28;20247;-65
2021/04/28 02:23:42;;;;;;;8.97;5.13;;;8.50;94.80;;;;;;5039348;28;20315;-65
2021/04/28 02:26:09;;;;;;;6.03;5.30;;;8.50;95.20;;;;;;5053047;28;20483;-65
2021/04/28 02:28:37;;;;;;;7.87;5.00;;;8.40;95.50;;;;;;5038407;28;20185;-65
2021/04/28 02:31:05;;;;;;;6.67;5.17;;;8.30;95.40;;;;;;5040287;28;20263;-65
2021/04/28 02:33:34;;;;;;;5.80;5.30;;;8.20;95.30;;;;;;5041379;28;20225;-65
2021/04/28 02:36:03;;;;;;;8.20;5.50;;;8.20;95.30;;;;;;5043647;28;20426;-65
2021/04/28 02:38:38;;;;;;;6.57;5.03;;;8.10;95.50;;;;;;5042966;28;20177;-64
2021/04/28 02:41:07;;;;;;;4.80;4.40;;;8.10;95.40;;;;;;5038252;28;20224;-65
2021/04/28 02:43:37;;;;;;;8.53;4.80;;;8.00;95.30;;;;;;5036745;28;20181;-65
2021/04/28 02:46:09;;;;;;;8.30;5.03;;;7.90;95.50;;;;;;5039050;28;20188;-64
2021/04/28 02:48:38;;;;;;;8.60;5.10;;;7.90;95.60;;;;;;5042181;28;20227;-65
2021/04/28 02:51:06;;;;;;;5.40;4.90;;;7.80;95.90;;;;;;5042485;28;20192;-65
2021/04/28 02:53:35;;;;;;;6.07;5.23;;;7.70;95.80;;;;;;5029354;28;20248;-65
2021/04/28 02:56:04;;;;;;;5.43;4.90;;;7.70;95.80;;;;;;5039097;28;20178;-65
2021/04/28 02:58:32;;;;;;;7.07;5.03;;;7.60;96.10;;;;;;5037832;28;20357;-64
2021/04/28 03:01:03;;;;;;;5.07;4.67;;;7.50;96.10;;;;;;5039273;28;20174;-65
2021/04/28 03:03:31;;;;;;;10.93;5.13;;;7.40;96.30;;;;;;5042353;28;20181;-64
2021/04/28 03:06:00;;;;;;;8.43;4.93;;;7.30;96.60;;;;;;5043165;28;20193;-65
2021/04/28 03:08:28;;;;;;;5.33;4.63;;;7.20;96.60;;;;;;5039387;28;20453;-65
2021/04/28 03:10:55;;;;;;;5.83;5.30;;;7.20;97.00;;;;;;5037784;28;20189;-65
2021/04/28 03:13:23;;;;;;;5.70;4.87;;;7.10;96.80;;;;;;5057035;28;20322;-65
2021/04/28 03:15:50;;;;;;;6.57;5.27;;;7.00;96.90;;;;;;5056838;28;20201;-65
2021/04/28 03:18:17;;;;;;;6.33;4.87;;;6.90;97.20;;;;;;5041863;28;20303;-65
2021/04/28 03:20:47;;;;;;;5.40;4.97;;;6.90;97.10;;;;;;5042698;28;20414;-65
2021/04/28 03:23:16;;;;;;;7.07;4.87;;;7.00;96.90;;;;;;5043926;28;20184;-65
2021/04/28 03:25:44;;;;;;;10.17;4.90;;;7.00;97.00;;;;;;5040352;28;20244;-65
2021/04/28 03:28:11;;;;;;;5.20;4.80;;;7.00;97.20;;;;;;5041542;28;20185;-65
2021/04/28 03:30:38;;;;;;;6.23;5.03;;;6.90;97.20;;;;;;5042835;28;20303;-65
2021/04/28 03:33:06;;;;;;;7.87;5.10;;;6.90;97.10;;;;;;5043013;28;20395;-65
2021/04/28 03:35:34;;;;;;;5.53;4.93;;;6.80;97.40;;;;;;5038472;28;20217;-64
2021/04/28 03:38:01;;;;;;;9.13;5.60;;;6.80;97.60;;;;;;5041654;28;20375;-65
2021/04/28 03:40:30;;;;;;;7.60;4.90;;;6.70;97.70;;;;;;5042334;28;20321;-65
2021/04/28 03:42:57;;;;;;;13.00;5.70;;;6.70;97.90;;;;;;5040268;28;20182;-65
2021/04/28 03:45:24;;;;;;;6.70;5.63;;;6.70;97.70;;;;;;5039458;28;20186;-65
2021/04/28 03:47:52;;;;;;;7.33;5.60;;;6.60;97.90;;;;;;5041492;28;20193;-65
2021/04/28 03:50:19;;;;;;;7.23;5.10;;;6.60;98.40;;;;;;5039383;28;20214;-65
2021/04/28 03:53:05;;;;;;;8.17;5.27;;;6.60;98.10;;;;;;5031690;28;20254;-65
2021/04/28 03:55:33;;;;;;;10.63;5.47;;;6.60;98.10;;;;;;5038010;28;20220;-65
2021/04/28 03:58:01;;;;;;;8.87;5.03;;;6.60;98.10;;;;;;5037611;28;20189;-65
2021/04/28 04:00:33;;;;;;;6.00;5.33;;;6.50;98.60;;;;;;5039838;28;20247;-65
2021/04/28 04:03:01;;;;;;;5.60;5.10;;;6.50;98.30;;;;;;5041757;28;20179;-65
2021/04/28 04:05:28;;;;;;;6.43;5.47;;;6.50;98.60;;;;;;5040334;28;20256;-65
2021/04/28 04:07:56;;;;;;;6.93;5.50;;;6.50;98.20;;;;;;5039511;28;20190;-65
2021/04/28 04:10:23;;;;;;;5.93;5.43;;;6.60;98.20;;;;;;5046481;28;20188;-65
2021/04/28 04:13:22;;;;;;;9.03;5.20;;;6.70;98.50;;;;;;5039691;28;20181;-65
2021/04/28 04:15:50;;;;;;;13.90;5.90;;;6.70;98.90;;;;;;5037380;28;20190;-65
2021/04/28 04:18:17;;;;;;;6.43;5.47;;;6.70;99.10;;;;;;5035241;28;20213;-65
2021/04/28 04:20:44;;;;;;;7.17;5.50;;;6.70;99.90;;;;;;5034694;28;20189;-65
2021/04/28 04:23:12;;;;;;;7.57;6.00;;;6.70;99.80;;;;;;5041420;28;20193;-65
2021/04/28 04:25:39;;;;;;;7.33;6.03;;;6.70;99.90;;;;;;5041443;28;20406;-65
2021/04/28 04:28:07;;;;;;;9.50;5.60;;;6.70;99.90;;;;;;5042796;28;20351;-65
2021/04/28 04:30:35;;;;;;;8.53;5.83;;;6.70;99.90;;;;;;5040327;28;20177;-65
2021/04/28 04:33:02;;;;;;;7.87;5.80;;;6.70;99.90;;;;;;5038994;28;20198;-65
2021/04/28 04:35:30;;;;;;;11.13;5.60;;;6.70;99.90;;;;;;5041243;28;20477;-65
2021/04/28 04:37:57;;;;;;;9.30;6.00;;;6.70;99.90;;;;;;5041840;28;20340;-65
2021/04/28 04:40:24;;;;;;;6.10;5.60;;;6.70;99.90;;;;;;5044639;28;20186;-65
2021/04/28 04:42:52;;;;;;;6.10;5.60;;;6.70;99.90;;;;;;5042956;28;20173;-65
2021/04/28 04:45:19;;;;;;;10.10;5.73;;;6.70;99.90;;;;;;5042976;28;20200;-65
2021/04/28 04:47:47;;;;;;;7.23;5.87;;;6.70;99.90;;;;;;5040749;28;20197;-65
2021/04/28 04:50:15;;;;;;;10.80;5.47;;;6.70;99.90;;;;;;5048279;28;20409;-65
2021/04/28 04:52:42;;;;;;;8.67;6.20;;;6.70;99.90;;;;;;5041699;28;20426;-65
2021/04/28 04:55:11;;;;;;;16.70;6.27;;;6.70;99.90;;;;;;5044870;28;20251;-65
2021/04/28 04:57:39;;;;;;;9.20;6.03;;;6.80;99.90;;;;;;5042948;28;21357;-64
2021/04/28 05:00:07;;;;;;;8.20;6.33;;;6.80;99.90;;;;;;5044462;28;20184;-65
2021/04/28 05:02:34;;;;;;;9.47;6.03;;;6.80;99.90;;;;;;5042252;28;20190;-65
2021/04/28 05:05:03;;;;;;;9.20;5.70;;;6.90;99.90;;;;;;5042092;28;20216;-65
2021/04/28 05:07:30;;;;;;;8.73;5.53;;;6.90;99.90;;;;;;5041528;28;20232;-65
2021/04/28 05:09:58;;;;;;;6.87;5.97;;;7.00;99.90;;;;;;5044203;28;20189;-65
2021/04/28 05:12:25;;;;;;;6.87;5.70;;;7.00;99.90;;;;;;5041696;28;20330;-65
2021/04/28 05:14:52;;;;;;;7.43;6.00;;;7.10;99.90;;;;;;5044995;28;20221;-65
2021/04/28 05:17:19;;;;;;;7.93;5.97;;;7.10;99.90;;;;;;5044435;28;20221;-65
2021/04/28 05:19:47;;;;;;;10.60;6.20;;;7.20;99.90;;;;;;5045604;28;20181;-65
2021/04/28 05:22:16;;;;;;;15.23;6.40;;;7.20;99.90;;;;;;5042228;28;20476;-65
2021/04/28 05:24:43;;;;;;;7.53;6.20;;;7.30;99.90;;;;;;5044138;28;20182;-65
2021/04/28 05:27:10;;;;;;;12.57;6.53;;;7.40;99.90;;;;;;5040845;28;20184;-65
2021/04/28 05:29:38;;;;;;;11.20;5.90;;;7.40;99.90;;;;;;5043221;28;20185;-64
2021/04/28 05:32:06;;;;;;;7.63;6.80;;;7.50;99.90;;;;;;5037997;28;20181;-65
2021/04/28 05:34:35;;;;;;;8.50;6.10;;;7.50;99.90;;;;;;5025685;28;20323;-65
2021/04/28 05:37:04;;;;;;;15.67;6.83;;;7.60;99.90;;;;;;5045831;28;20190;-65
2021/04/28 05:39:32;;;;;;;7.50;6.43;;;7.60;99.90;;;;;;5046456;28;20185;-65
2021/04/28 05:42:00;;;;;;;16.23;6.70;;;7.60;99.90;;;;;;5037672;28;20517;-65
2021/04/28 05:44:29;;;;;;;9.93;6.50;;;7.60;99.90;;;;;;5041909;28;20232;-65
2021/04/28 05:46:56;;;;;;;13.50;7.10;;;7.70;99.90;;;;;;5034083;28;20362;-65
2021/04/28 05:49:23;;;;;;;8.60;6.03;;;7.70;99.90;;;;;;5025368;28;20190;-65
2021/04/28 05:51:51;;;;;;;9.53;6.73;;;7.80;99.90;;;;;;5038453;28;21402;-65
2021/04/28 05:54:18;;;;;;;8.77;6.43;;;7.80;99.90;;;;;;5041566;28;20449;-65
2021/04/28 05:56:47;;;;;;;9.30;6.67;;;7.90;99.90;;;;;;5041550;28;20177;-65
2021/04/28 05:59:15;;;;;;;9.43;7.03;;;8.00;99.90;;;;;;5038307;28;20265;-65
2021/04/28 06:01:43;;;;;;;10.23;6.60;;;8.00;99.90;;;;;;5043291;28;20216;-65
2021/04/28 06:04:10;;;;;;;8.97;7.03;;;8.10;99.90;;;;;;5039160;28;20186;-64
2021/04/28 06:06:38;;;;;;;11.57;7.33;;;8.10;99.90;;;;;;5044536;28;20232;-65
2021/04/28 06:09:05;;;;;;;7.60;6.20;;;8.20;99.90;;;;;;5052018;28;20178;-65
2021/04/28 06:11:33;;;;;;;14.73;7.27;;;8.30;99.90;;;;;;5027948;28;20194;-65
2021/04/28 06:14:02;;;;;;;14.80;7.10;;;8.30;99.80;;;;;;5040632;28;20231;-65
2021/04/28 06:16:30;;;;;;;8.83;6.60;;;8.40;99.90;;;;;;5038928;28;20185;-66
2021/04/28 06:18:57;;;;;;;9.70;7.57;;;8.50;99.90;;;;;;5040386;28;20197;-66
2021/04/28 06:21:25;;;;;;;11.67;7.47;;;8.50;99.90;;;;;;5044847;28;20453;-65
2021/04/28 06:23:52;;;;;;;13.90;7.87;;;8.40;99.90;;;;;;5030320;28;20429;-65
2021/04/28 06:26:19;;;;;;;9.23;6.70;;;8.50;99.90;;;;;;5045463;28;20182;-65
2021/04/28 06:28:47;;;;;;;7.87;7.07;;;8.70;99.90;;;;;;5045077;28;20181;-66
2021/04/28 06:31:15;;;;;;;13.47;6.97;;;8.80;99.90;;;;;;5045403;28;20202;-65
2021/04/28 06:33:43;;;;;;;10.87;7.40;;;8.90;99.90;;;;;;5036435;28;20247;-65
2021/04/28 06:36:13;;;;;;;13.97;7.87;;;9.10;99.80;;;;;;5042121;28;20177;-65
2021/04/28 06:38:40;;;;;;;7.83;7.13;;;9.20;99.90;;;;;;5039705;28;20224;-65
2021/04/28 06:41:17;;;;;;;10.70;7.17;;;9.50;99.90;;;;;;5042754;28;20178;-66
2021/04/28 06:43:44;;;;;;;16.77;7.50;;;9.90;99.60;;;;;;5042107;28;20348;-65
2021/04/28 06:46:17;;;;;;;12.70;7.67;;;10.20;99.80;;;;;;5037543;28;20414;-65
2021/04/28 06:48:44;;;;;;;14.30;7.93;;;10.30;99.00;;;;;;5040583;28;20197;-65
2021/04/28 06:51:12;;;;;;;13.60;8.20;;;10.70;99.50;;;;;;5040393;28;20181;-66
2021/04/28 06:53:39;;;;;;;14.20;8.70;;;11.30;98.50;;;;;;5037063;28;20230;-66
2021/04/28 06:56:06;;;;;;;11.77;8.50;;;11.70;97.80;;;;;;5036550;28;20217;-66
2021/04/28 06:58:34;;;;;;;16.13;7.93;;;12.10;96.90;;;;;;5035981;28;20182;-66
2021/04/28 07:01:01;;;;;;;10.53;8.20;;;11.60;96.70;;;;;;5035388;28;20201;-66
2021/04/28 07:03:30;;;;;;;16.47;7.93;;;11.40;97.50;;;;;;5055561;28;20185;-65
2021/04/28 07:05:57;;;;;;;12.53;8.60;;;11.40;96.80;;;;;;5038426;28;20188;-66
2021/04/28 07:08:25;;;;;;;20.63;8.87;;;11.40;96.50;;;;;;5027948;28;20390;-65
2021/04/28 07:10:52;;;;;;;12.37;8.13;;;11.60;97.00;;;;;;5036967;28;20237;-66
2021/04/28 07:13:24;;;;;;;15.63;7.93;;;12.20;96.90;;;;;;5036491;28;20359;-66
2021/04/28 07:15:52;;;;;;;16.10;8.80;;;13.00;96.10;;;;;;5027590;28;20256;-66
2021/04/28 07:18:21;;;;;;;13.33;8.30;;;13.70;94.70;;;;;;5031358;28;20455;-67
2021/04/28 07:20:50;;;;;;;10.37;8.67;;;14.20;94.80;;;;;;5042162;28;20227;-66
2021/04/28 07:23:17;;;;;;;10.83;9.13;;;14.70;93.90;;;;;;5037318;28;20181;-67
2021/04/28 07:25:45;;;;;;;14.17;8.73;;;14.90;93.70;;;;;;5035597;28;20193;-64
2021/04/28 07:28:12;;;;;;;18.33;8.60;;;14.90;93.70;;;;;;5042520;28;20239;-67
2021/04/28 07:30:40;;;;;;;13.27;8.37;;;14.90;93.30;;;;;;5037901;28;20189;-67
2021/04/28 07:33:07;;;;;;;11.10;8.60;;;15.40;93.70;;;;;;5028215;28;20423;-67
2021/04/28 07:35:37;;;;;;;13.07;8.87;;;15.60;93.70;;;;;;5040969;28;20434;-67
2021/04/28 07:38:05;;;;;;;12.43;9.30;;;15.70;93.20;;;;;;5034533;28;20256;-65
2021/04/28 07:40:34;;;;;;;13.37;9.10;;;16.00;92.00;;;;;;5032002;28;20190;-65
2021/04/28 07:43:02;;;;;;;16.17;9.23;;;16.20;92.60;;;;;;5031909;28;20287;-65
2021/04/28 07:45:34;;;;;;;13.73;9.50;;;16.20;93.00;;;;;;5035556;28;20190;-65
2021/04/28 07:48:05;;;;;;;13.13;9.23;;;16.50;92.40;;;;;;5030304;28;20194;-65
2021/04/28 07:50:33;;;;;;;15.70;9.80;;;16.70;92.80;;;;;;5023294;28;20206;-67
2021/04/28 07:53:01;;;;;;;21.17;9.37;;;16.20;92.10;;;;;;5036292;28;20178;-67
2021/04/28 07:55:30;;;;;;;19.00;9.60;;;15.70;93.00;;;;;;5032299;28;20236;-66
2021/04/28 07:57:58;;;;;;;14.77;9.90;;;15.20;92.70;;;;;;5032705;28;20185;-67
2021/04/28 08:00:28;;;;;;;13.17;10.03;;;15.00;94.80;;;;;;5040002;28;20411;-66
2021/04/28 08:02:55;;;;;;;16.97;10.30;;;15.10;93.10;;;;;;5038478;28;20227;-66
2021/04/28 08:05:23;;;;;;;18.17;10.27;;;15.00;94.70;;;;;;5039327;28;20197;-66
2021/04/28 08:07:51;;;;;;;15.57;10.23;;;15.10;93.10;;;;;;5028201;28;20201;-67
2021/04/28 08:10:19;;;;;;;13.03;9.83;;;15.20;93.60;;;;;;5024390;28;20182;-66
2021/04/28 08:12:47;;;;;;;16.03;10.70;;;15.60;92.90;;;;;;5035412;28;20437;-66
2021/04/28 08:15:15;;;;;;;14.10;9.63;;;15.80;93.20;;;;;;5045429;28;20220;-66
2021/04/28 08:17:42;;;;;;;14.17;9.23;;;16.20;94.20;;;;;;5046834;28;20221;-67
2021/04/28 08:20:12;;;;;;;16.20;9.97;;;16.50;93.00;;;;;;5045073;28;20329;-66
2021/04/28 08:22:39;;;;;;;14.20;10.20;;;16.60;92.50;;;;;;5027703;28;20185;-67
2021/04/28 08:25:09;;;;;;;13.83;9.87;;;16.60;93.10;;;;;;5038744;28;20227;-67
2021/04/28 08:27:37;;;;;;;18.67;10.43;;;16.50;93.10;;;;;;5039435;28;20181;-67
2021/04/28 08:30:07;;;;;;;14.20;10.40;;;16.20;91.70;;;;;;5035437;28;20200;-67
2021/04/28 08:32:34;;;;;;;17.63;9.67;;;15.80;92.20;;;;;;5044265;28;20266;-66
2021/04/28 08:35:04;;;;;;;14.77;9.80;;;15.70;93.30;;;;;;5040662;28;20221;-66
2021/04/28 08:37:31;;;;;;;17.97;10.70;;;15.60;95.10;;;;;;5047454;28;20189;-67
2021/04/28 08:39:58;;;;;;;12.13;10.17;;;15.70;93.40;;;;;;5044401;28;20311;-67
2021/04/28 08:42:26;;;;;;;14.57;9.87;;;15.70;92.80;;;;;;5040702;28;20194;-67
2021/04/28 08:44:53;;;;;;;17.17;11.13;;;15.90;93.50;;;;;;5042217;28;20198;-67
2021/04/28 08:47:21;;;;;;;13.63;9.70;;;16.10;94.30;;;;;;5030954;28;20392;-66
2021/04/28 08:49:49;;;;;;;15.43;10.07;;;16.10;92.20;;;;;;5037760;28;20186;-66
2021/04/28 08:52:16;;;;;;;16.07;10.17;;;15.70;92.40;;;;;;5036142;28;20675;-66
2021/04/28 08:54:48;;;;;;;13.80;10.43;;;15.50;94.00;;;;;;5040758;28;20213;-66
2021/04/28 08:57:16;;;;;;;16.17;10.07;;;15.30;93.60;;;;;;5036291;28;20182;-66
2021/04/28 08:59:43;;;;;;;15.77;10.37;;;15.10;92.90;;;;;;5040403;28;20193;-66
2021/04/28 09:02:17;;;;;;;19.93;10.17;;;15.10;93.30;;;;;;5044497;28;21320;-66
2021/04/28 09:05:09;;;;;;;16.57;10.50;;;15.30;94.30;;;;;;5038799;28;20402;-66
2021/04/28 09:07:37;;;;;;;15.53;10.10;;;15.70;95.10;;;;;;5028293;28;20186;-66
2021/04/28 09:10:07;;;;;;;19.50;9.93;;;15.90;92.80;;;;;;5042038;28;20185;-66
2021/04/28 09:12:35;;;;;;;20.80;9.93;;;16.00;93.30;;;;;;5044728;28;20398;-66
2021/04/28 09:15:04;;;;;;;16.63;10.73;;;16.10;92.70;;;;;;5039774;28;20486;-66
2021/04/28 09:17:49;;;;;;;15.13;10.17;;;15.90;92.30;;;;;;5042407;28;20225;-66
2021/04/28 09:20:24;;;;;;;18.23;10.83;;;15.70;92.30;;;;;;5044765;28;20209;-66
2021/04/28 09:23:10;;;;;;;12.60;10.40;;;15.80;94.00;;;;;;5042131;28;20268;-67
2021/04/28 09:25:43;;;;;;;16.13;10.53;;;16.00;94.70;;;;;;5035643;28;20181;-66
2021/04/28 09:28:29;;;;;;;15.77;10.53;;;16.20;92.70;;;;;;5040062;28;20198;-66
2021/04/28 09:31:15;;;;;;;18.03;10.93;;;16.80;92.40;;;;;;5052269;28;20186;-67
2021/04/28 09:33:55;;;;;;;16.63;10.00;;;17.60;92.80;;;;;;5025099;28;20207;-67
2021/04/28 09:36:30;;;;;;;25.13;10.50;;;18.40;93.30;;;;;;5039977;28;20468;-67
2021/04/28 09:39:02;;;;;;;13.63;10.10;;;19.30;92.40;;;;;;5036961;28;20199;-67
2021/04/28 09:41:39;;;;;;;14.23;10.10;;;20.20;89.70;;;;;;5040143;28;20244;-64
2021/04/28 09:44:31;;;;;;;16.47;10.80;;;20.90;88.40;;;;;;5037601;28;20205;-65
2021/04/28 09:47:01;;;;;;;16.23;10.57;;;21.10;88.00;;;;;;5032346;28;20264;-67
2021/04/28 09:49:53;;;;;;;17.23;10.70;;;20.90;86.00;;;;;;5033834;28;20194;-67
2021/04/28 09:52:40;;;;;;;15.50;10.97;;;21.00;87.10;;;;;;5035684;28;20182;-67
2021/04/28 09:55:12;;;;;;;15.63;11.13;;;21.30;85.30;;;;;;5033668;28;20268;-67
2021/04/28 09:57:40;;;;;;;16.80;11.07;;;21.90;85.30;;;;;;5045982;28;20185;-67
2021/04/28 10:00:19;;;;;;;15.87;10.57;;;21.90;84.50;;;;;;5045693;28;20359;-65
2021/04/28 10:02:54;;;;;;;14.13;10.40;;;22.30;86.00;;;;;;5044553;28;20184;-65
2021/04/28 10:05:25;;;;;;;12.83;11.07;;;22.50;82.50;;;;;;5032698;28;20233;-67
2021/04/28 10:08:06;;;;;;;19.93;11.60;;;22.20;84.90;;;;;;5032945;28;20195;-67
2021/04/28 10:10:35;;;;;;;17.37;11.03;;;22.50;83.70;;;;;;5037797;28;20225;-65
2021/04/28 10:13:03;;;;;;;17.43;11.07;;;22.90;83.30;;;;;;5040676;28;20257;-65
2021/04/28 10:15:30;;;;;;;12.80;10.73;;;22.90;83.40;;;;;;5042134;28;20212;-65
2021/04/28 10:18:01;;;;;;;15.53;10.60;;;23.30;81.90;;;;;;5045213;28;20216;-64
2021/04/28 10:20:31;;;;;;;17.83;11.90;;;23.50;81.60;;;;;;5041005;28;20201;-65
2021/04/28 10:23:03;;;;;;;14.53;10.70;;;23.80;81.00;;;;;;5036142;28;20232;-64
2021/04/28 10:25:30;;;;;;;16.43;11.33;;;23.40;81.90;;;;;;5044482;28;20394;-65
2021/04/28 10:27:58;;;;;;;15.30;11.13;;;23.20;80.90;;;;;;5045412;28;20248;-64
2021/04/28 10:30:26;;;;;;;13.73;11.20;;;23.10;81.10;;;;;;5033754;28;20298;-65
2021/04/28 10:32:57;;;;;;;16.13;11.50;;;23.30;85.30;;;;;;5036256;28;20446;-65
2021/04/28 10:35:28;;;;;;;17.47;11.60;;;23.70;87.60;;;;;;5038066;28;20220;-65
2021/04/28 10:37:57;;;;;;;15.13;11.67;;;23.80;79.20;;;;;;5040193;28;20465;-65
2021/04/28 10:40:27;;;;;;;16.43;11.10;;;23.70;79.30;;;;;;5030028;28;20272;-65
2021/04/28 10:43:05;;;;;;;13.50;11.63;;;23.60;82.20;;;;;;5035417;28;20252;-65
2021/04/28 10:45:38;;;;;;;17.87;12.70;;;23.60;86.20;;;;;;5035663;28;20281;-65
2021/04/28 10:48:39;;;;;;;15.93;11.70;;;23.60;79.20;;;;;;5038060;28;20253;-64
2021/04/28 10:51:07;;;;;;;16.67;12.30;;;23.10;80.70;;;;;;5027845;28;20188;-64
2021/04/28 10:53:34;;;;;;;13.30;11.63;;;23.40;81.10;;;;;;5038628;28;20184;-64
2021/04/28 10:56:11;;;;;;;19.60;11.77;;;23.80;80.40;;;;;;5040049;28;20331;-65
2021/04/28 10:58:46;;;;;;;13.50;12.10;;;23.90;76.20;;;;;;5033558;28;20189;-65
2021/04/28 11:01:15;;;;;;;14.13;11.97;;;23.50;75.70;;;;;;5039717;28;20186;-64
2021/04/28 11:03:49;;;;;;;13.80;12.13;;;23.20;75.80;;;;;;5038141;28;20181;-64
2021/04/28 11:06:42;;;;;;;14.77;12.33;;;22.90;77.80;;;;;;5036268;28;20419;-67
2021/04/28 11:09:14;;;;;;;14.97;11.60;;;22.90;77.60;;;;;;5036511;28;20393;-64
2021/04/28 11:11:45;;;;;;;15.20;12.73;;;23.00;77.30;;;;;;5042319;28;20344;-65
2021/04/28 11:14:32;;;;;;;16.83;12.07;;;23.00;79.40;;;;;;5037100;28;20249;-64
2021/04/28 11:17:26;;;;;;;17.37;11.77;;;23.10;84.30;;;;;;5037497;28;20300;-64
2021/04/28 11:20:16;;;;;;;13.47;12.00;;;23.50;78.70;;;;;;5036382;28;20175;-64
2021/04/28 11:22:44;;;;;;;13.00;11.10;;;23.40;78.00;;;;;;5039957;28;20376;-65
2021/04/28 11:25:17;;;;;;;15.50;11.43;;;23.50;77.50;;;;;;5040158;28;20297;-64
2021/04/28 11:28:08;;;;;;;15.87;11.93;;;23.30;76.80;;;;;;5034909;28;20412;-64
2021/04/28 11:30:46;;;;;;;14.03;11.47;;;23.30;76.00;;;;;;5032586;28;20215;-67
2021/04/28 11:33:30;;;;;;;18.93;11.90;;;23.20;78.70;;;;;;5021612;28;20197;-64
2021/04/28 11:36:15;;;;;;;12.37;11.07;;;23.20;83.20;;;;;;5039475;28;20375;-64
2021/04/28 11:38:45;;;;;;;15.37;11.23;;;23.50;76.10;;;;;;5032782;28;20287;-64
2021/04/28 11:41:15;;;;;;;13.77;11.27;;;23.30;78.40;;;;;;5028417;28;20204;-67
2021/04/28 11:43:46;;;;;;;16.57;12.33;;;23.20;74.80;;;;;;5035043;28;20232;-67
2021/04/28 11:46:18;;;;;;;17.73;13.17;;;22.90;75.80;;;;;;5045061;28;20189;-66
2021/04/28 11:48:47;;;;;;;18.67;12.57;;;22.70;76.10;;;;;;5049306;28;20243;-67
2021/04/28 11:51:25;;;;;;;16.43;12.27;;;22.30;82.30;;;;;;5047614;28;20351;-67
2021/04/28 11:53:56;;;;;;;16.83;12.53;;;22.80;82.40;;;;;;5047722;28;20185;-66
2021/04/28 11:56:31;;;;;;;16.90;13.10;;;23.00;78.10;;;;;;5031888;28;20636;-67
2021/04/28 11:59:00;;;;;;;17.83;11.97;;;22.90;80.40;;;;;;5047556;28;20197;-66
2021/04/28 12:01:29;;;;;;;14.43;11.40;;;22.70;76.10;;;;;;5047687;28;20239;-67
2021/04/28 12:03:59;;;;;;;13.97;11.83;;;22.90;81.00;;;;;;5048284;28;20180;-66
2021/04/28 12:06:44;;;;;;;17.27;12.57;;;22.50;77.30;;;;;;5046044;28;20182;-67
2021/04/28 12:09:35;;;;;;;18.87;12.60;;;21.90;76.40;;;;;;5040879;28;20190;-67
2021/04/28 12:12:15;;;;;;;17.93;12.90;;;22.00;84.70;;;;;;5044544;28;20232;-66
2021/04/28 12:14:43;;;;;;;15.03;12.40;;;22.30;77.90;;;;;;5038984;28;20185;-67
2021/04/28 12:17:11;;;;;;;20.47;13.00;;;22.30;79.20;;;;;;5035208;28;20279;-67
2021/04/28 12:19:44;;;;;;;17.40;12.80;;;22.30;79.10;;;;;;5038326;28;20186;-67
2021/04/28 12:22:12;;;;;;;16.70;12.20;;;22.40;77.80;;;;;;5045008;28;20183;-67
2021/04/28 12:24:42;;;;;;;15.43;13.07;;;22.60;86.70;;;;;;5030668;28;20185;-67
2021/04/28 12:27:16;;;;;;;15.80;12.73;;;22.70;79.50;;;;;;5032251;28;20181;-66
2021/04/28 12:29:46;;;;;;;16.23;12.77;;;22.70;77.10;;;;;;5046941;28;20243;-67
2021/04/28 12:32:15;;;;;;;18.73;13.13;;;22.70;81.90;;;;;;5046891;28;20177;-67
2021/04/28 12:34:43;;;;;;;18.97;13.30;;;22.20;77.00;;;;;;5047801;28;20223;-66
2021/04/28 12:37:17;;;;;;;19.60;13.87;;;21.70;78.10;;;;;;5048000;28;20231;-66
2021/04/28 12:39:51;;;;;;;15.57;12.87;;;21.80;79.70;;;;;;5036124;28;20189;-66
2021/04/28 12:42:21;;;;;;;22.80;13.13;;;22.20;85.50;;;;;;5041400;28;20252;-66
2021/04/28 12:44:50;;;;;;;16.80;13.10;;;21.60;77.10;;;;;;5036752;28;20208;-67
2021/04/28 12:47:27;;;;;;;15.20;12.63;;;21.80;87.70;;;;;;5038752;28;20261;-67
2021/04/28 12:50:19;;;;;;;22.03;14.37;;;21.80;79.00;;;;;;5045540;28;20189;-66
2021/04/28 12:52:47;;;;;;;27.67;13.20;;;21.80;77.70;;;;;;5048806;28;20346;-66
2021/04/28 12:55:33;;;;;;;20.67;13.00;;;22.10;86.10;;;;;;5049248;28;20228;-66
2021/04/28 12:58:03;;;;;;;22.27;14.63;;;22.30;81.70;;;;;;5030312;28;20201;-66